sensor_id;sensor_type;location;lat;lon;timestamp;P1;durP1;ratioP1;P2;durP2;ratioP2
39788;SDS011;25478;42.626;23.320;2022-08-19T00:01:55;7.38;;;6.15;;
39788;SDS011;25478;42.626;23.320;2022-08-19T00:04:31;7.80;;;6.13;;
39788;SDS011;25478;42.626;23.320;2022-08-19T00:07:06;7.47;;;6.20;;
39788;SDS011;25478;42.626;23.320;2022-08-19T00:09:39;7.35;;;5.90;;
39788;SDS011;25478;42.626;23.320;2022-08-19T00:12:11;8.75;;;6.40;;
39788;SDS011;25478;42.626;23.320;2022-08-19T00:14:38;8.65;;;6.38;;
39788;SDS011;25478;42.626;23.320;2022-08-19T00:17:10;7.22;;;5.70;;
39788;SDS011;25478;42.626;23.320;2022-08-19T00:19:42;7.93;;;5.88;;
39788;SDS011;25478;42.626;23.320;2022-08-19T00:22:14;8.40;;;6.05;;
39788;SDS011;25478;42.626;23.320;2022-08-19T00:24:48;7.80;;;6.38;;
39788;SDS011;25478;42.626;23.320;2022-08-19T00:27:20;8.50;;;6.20;;
39788;SDS011;25478;42.626;23.320;2022-08-19T00:29:52;7.72;;;6.20;;
39788;SDS011;25478;42.626;23.320;2022-08-19T00:32:24;8.40;;;6.35;;
39788;SDS011;25478;42.626;23.320;2022-08-19T00:35:03;6.90;;;5.60;;
39788;SDS011;25478;42.626;23.320;2022-08-19T00:37:37;8.60;;;5.90;;
39788;SDS011;25478;42.626;23.320;2022-08-19T00:40:10;8.45;;;5.90;;
39788;SDS011;25478;42.626;23.320;2022-08-19T00:42:44;9.77;;;6.63;;
39788;SDS011;25478;42.626;23.320;2022-08-19T00:45:19;7.63;;;6.27;;
39788;SDS011;25478;42.626;23.320;2022-08-19T00:47:54;6.80;;;6.10;;
39788;SDS011;25478;42.626;23.320;2022-08-19T00:50:26;6.75;;;5.93;;
39788;SDS011;25478;42.626;23.320;2022-08-19T00:52:59;7.30;;;6.10;;
39788;SDS011;25478;42.626;23.320;2022-08-19T00:55:35;8.60;;;6.20;;
39788;SDS011;25478;42.626;23.320;2022-08-19T00:58:10;9.25;;;6.43;;
39788;SDS011;25478;42.626;23.320;2022-08-19T01:00:45;8.25;;;6.10;;
39788;SDS011;25478;42.626;23.320;2022-08-19T01:03:19;7.53;;;5.77;;
39788;SDS011;25478;42.626;23.320;2022-08-19T01:05:52;8.25;;;6.47;;
39788;SDS011;25478;42.626;23.320;2022-08-19T01:08:25;8.80;;;6.23;;
39788;SDS011;25478;42.626;23.320;2022-08-19T01:10:58;7.53;;;5.72;;
39788;SDS011;25478;42.626;23.320;2022-08-19T01:13:38;8.32;;;6.10;;
39788;SDS011;25478;42.626;23.320;2022-08-19T01:16:12;9.63;;;6.00;;
39788;SDS011;25478;42.626;23.320;2022-08-19T01:18:45;7.72;;;5.63;;
39788;SDS011;25478;42.626;23.320;2022-08-19T01:21:32;8.13;;;6.10;;
39788;SDS011;25478;42.626;23.320;2022-08-19T01:24:05;8.32;;;6.28;;
39788;SDS011;25478;42.626;23.320;2022-08-19T01:26:38;9.18;;;6.07;;
39788;SDS011;25478;42.626;23.320;2022-08-19T01:29:07;7.65;;;6.30;;
39788;SDS011;25478;42.626;23.320;2022-08-19T01:31:46;10.23;;;6.73;;
39788;SDS011;25478;42.626;23.320;2022-08-19T01:34:18;8.77;;;6.28;;
39788;SDS011;25478;42.626;23.320;2022-08-19T01:36:45;8.45;;;6.13;;
39788;SDS011;25478;42.626;23.320;2022-08-19T01:39:21;10.70;;;6.53;;
39788;SDS011;25478;42.626;23.320;2022-08-19T01:41:54;7.60;;;6.47;;
39788;SDS011;25478;42.626;23.320;2022-08-19T01:44:26;7.70;;;6.05;;
39788;SDS011;25478;42.626;23.320;2022-08-19T01:46:58;8.18;;;6.28;;
39788;SDS011;25478;42.626;23.320;2022-08-19T01:49:30;8.38;;;6.15;;
39788;SDS011;25478;42.626;23.320;2022-08-19T01:52:03;10.88;;;6.10;;
39788;SDS011;25478;42.626;23.320;2022-08-19T01:57:09;7.40;;;5.93;;
39788;SDS011;25478;42.626;23.320;2022-08-19T01:59:43;9.73;;;6.38;;
39788;SDS011;25478;42.626;23.320;2022-08-19T02:02:16;8.63;;;6.30;;
39788;SDS011;25478;42.626;23.320;2022-08-19T02:04:48;7.43;;;6.15;;
39788;SDS011;25478;42.626;23.320;2022-08-19T02:07:14;8.73;;;6.00;;
39788;SDS011;25478;42.626;23.320;2022-08-19T02:09:47;9.75;;;6.68;;
39788;SDS011;25478;42.626;23.320;2022-08-19T02:12:19;8.27;;;6.10;;
39788;SDS011;25478;42.626;23.320;2022-08-19T02:14:52;8.17;;;5.70;;
39788;SDS011;25478;42.626;23.320;2022-08-19T02:17:18;8.07;;;6.13;;
39788;SDS011;25478;42.626;23.320;2022-08-19T02:19:50;7.70;;;6.15;;
39788;SDS011;25478;42.626;23.320;2022-08-19T02:22:23;9.10;;;6.18;;
39788;SDS011;25478;42.626;23.320;2022-08-19T02:27:28;10.25;;;5.63;;
39788;SDS011;25478;42.626;23.320;2022-08-19T02:30:00;10.48;;;6.00;;
39788;SDS011;25478;42.626;23.320;2022-08-19T02:32:46;9.05;;;6.53;;
39788;SDS011;25478;42.626;23.320;2022-08-19T02:35:18;8.85;;;5.65;;
39788;SDS011;25478;42.626;23.320;2022-08-19T02:37:44;7.88;;;6.68;;
39788;SDS011;25478;42.626;23.320;2022-08-19T02:40:34;9.10;;;5.88;;
39788;SDS011;25478;42.626;23.320;2022-08-19T02:43:08;8.03;;;5.93;;
39788;SDS011;25478;42.626;23.320;2022-08-19T02:45:40;8.97;;;6.07;;
39788;SDS011;25478;42.626;23.320;2022-08-19T02:48:12;7.43;;;5.55;;
39788;SDS011;25478;42.626;23.320;2022-08-19T02:50:46;7.33;;;5.80;;
39788;SDS011;25478;42.626;23.320;2022-08-19T02:53:23;8.27;;;6.05;;
39788;SDS011;25478;42.626;23.320;2022-08-19T02:55:57;11.00;;;5.65;;
39788;SDS011;25478;42.626;23.320;2022-08-19T02:58:29;7.32;;;5.93;;
39788;SDS011;25478;42.626;23.320;2022-08-19T03:01:01;9.02;;;6.25;;
39788;SDS011;25478;42.626;23.320;2022-08-19T03:03:33;7.25;;;6.00;;
39788;SDS011;25478;42.626;23.320;2022-08-19T03:06:07;8.35;;;6.20;;
39788;SDS011;25478;42.626;23.320;2022-08-19T03:08:46;7.13;;;5.88;;
39788;SDS011;25478;42.626;23.320;2022-08-19T03:11:22;8.23;;;6.50;;
39788;SDS011;25478;42.626;23.320;2022-08-19T03:13:55;8.68;;;6.05;;
39788;SDS011;25478;42.626;23.320;2022-08-19T03:16:29;7.45;;;6.13;;
39788;SDS011;25478;42.626;23.320;2022-08-19T03:19:03;8.27;;;6.30;;
39788;SDS011;25478;42.626;23.320;2022-08-19T03:21:35;7.68;;;6.47;;
39788;SDS011;25478;42.626;23.320;2022-08-19T03:24:08;8.55;;;6.15;;
39788;SDS011;25478;42.626;23.320;2022-08-19T03:26:41;8.07;;;6.73;;
39788;SDS011;25478;42.626;23.320;2022-08-19T03:31:47;8.90;;;6.30;;
39788;SDS011;25478;42.626;23.320;2022-08-19T03:34:28;10.02;;;6.60;;
39788;SDS011;25478;42.626;23.320;2022-08-19T03:37:04;9.25;;;6.05;;
39788;SDS011;25478;42.626;23.320;2022-08-19T03:39:39;9.00;;;6.63;;
39788;SDS011;25478;42.626;23.320;2022-08-19T03:44:44;9.75;;;5.72;;
39788;SDS011;25478;42.626;23.320;2022-08-19T03:47:10;8.93;;;6.35;;
39788;SDS011;25478;42.626;23.320;2022-08-19T03:49:47;9.25;;;6.07;;
39788;SDS011;25478;42.626;23.320;2022-08-19T03:52:19;8.25;;;6.05;;
39788;SDS011;25478;42.626;23.320;2022-08-19T03:54:51;10.00;;;6.75;;
39788;SDS011;25478;42.626;23.320;2022-08-19T03:57:23;10.82;;;6.25;;
39788;SDS011;25478;42.626;23.320;2022-08-19T03:59:55;11.48;;;6.40;;
39788;SDS011;25478;42.626;23.320;2022-08-19T04:02:30;8.80;;;5.93;;
39788;SDS011;25478;42.626;23.320;2022-08-19T04:05:01;8.80;;;6.68;;
39788;SDS011;25478;42.626;23.320;2022-08-19T04:07:33;8.00;;;6.22;;
39788;SDS011;25478;42.626;23.320;2022-08-19T04:10:05;10.40;;;6.38;;
39788;SDS011;25478;42.626;23.320;2022-08-19T04:12:37;9.25;;;6.40;;
39788;SDS011;25478;42.626;23.320;2022-08-19T04:15:10;13.57;;;6.93;;
39788;SDS011;25478;42.626;23.320;2022-08-19T04:17:42;9.43;;;6.70;;
39788;SDS011;25478;42.626;23.320;2022-08-19T04:20:14;12.13;;;6.32;;
39788;SDS011;25478;42.626;23.320;2022-08-19T04:22:46;10.43;;;6.63;;
39788;SDS011;25478;42.626;23.320;2022-08-19T04:25:18;8.60;;;6.50;;
39788;SDS011;25478;42.626;23.320;2022-08-19T04:27:50;10.18;;;6.88;;
39788;SDS011;25478;42.626;23.320;2022-08-19T04:30:22;9.90;;;6.90;;
39788;SDS011;25478;42.626;23.320;2022-08-19T04:33:01;11.05;;;6.63;;
39788;SDS011;25478;42.626;23.320;2022-08-19T04:35:40;11.30;;;6.68;;
39788;SDS011;25478;42.626;23.320;2022-08-19T04:38:15;10.45;;;6.50;;
39788;SDS011;25478;42.626;23.320;2022-08-19T04:40:50;11.00;;;6.78;;
39788;SDS011;25478;42.626;23.320;2022-08-19T04:43:41;9.25;;;6.85;;
39788;SDS011;25478;42.626;23.320;2022-08-19T04:46:16;11.13;;;7.32;;
39788;SDS011;25478;42.626;23.320;2022-08-19T04:48:48;12.07;;;7.20;;
39788;SDS011;25478;42.626;23.320;2022-08-19T04:51:20;11.45;;;7.18;;
39788;SDS011;25478;42.626;23.320;2022-08-19T04:53:52;12.43;;;8.07;;
39788;SDS011;25478;42.626;23.320;2022-08-19T04:56:25;10.50;;;8.33;;
39788;SDS011;25478;42.626;23.320;2022-08-19T04:58:53;10.98;;;8.07;;
39788;SDS011;25478;42.626;23.320;2022-08-19T05:01:26;11.02;;;8.00;;
39788;SDS011;25478;42.626;23.320;2022-08-19T05:04:00;10.50;;;7.75;;
39788;SDS011;25478;42.626;23.320;2022-08-19T05:06:33;10.68;;;8.35;;
39788;SDS011;25478;42.626;23.320;2022-08-19T05:09:05;10.05;;;7.63;;
39788;SDS011;25478;42.626;23.320;2022-08-19T05:11:37;12.30;;;8.10;;
39788;SDS011;25478;42.626;23.320;2022-08-19T05:14:10;15.07;;;8.37;;
39788;SDS011;25478;42.626;23.320;2022-08-19T05:16:44;12.38;;;8.18;;
39788;SDS011;25478;42.626;23.320;2022-08-19T05:19:16;11.27;;;8.25;;
39788;SDS011;25478;42.626;23.320;2022-08-19T05:22:07;11.02;;;8.23;;
39788;SDS011;25478;42.626;23.320;2022-08-19T05:24:58;12.80;;;8.35;;
39788;SDS011;25478;42.626;23.320;2022-08-19T05:27:31;9.98;;;7.85;;
39788;SDS011;25478;42.626;23.320;2022-08-19T05:29:58;12.43;;;8.30;;
39788;SDS011;25478;42.626;23.320;2022-08-19T05:32:30;12.33;;;8.37;;
39788;SDS011;25478;42.626;23.320;2022-08-19T05:35:03;13.50;;;7.68;;
39788;SDS011;25478;42.626;23.320;2022-08-19T05:37:35;12.05;;;7.80;;
39788;SDS011;25478;42.626;23.320;2022-08-19T05:40:08;11.63;;;7.68;;
39788;SDS011;25478;42.626;23.320;2022-08-19T05:42:40;9.00;;;6.93;;
39788;SDS011;25478;42.626;23.320;2022-08-19T05:45:12;8.30;;;7.18;;
39788;SDS011;25478;42.626;23.320;2022-08-19T05:47:44;8.68;;;7.25;;
39788;SDS011;25478;42.626;23.320;2022-08-19T05:50:16;10.40;;;7.40;;
39788;SDS011;25478;42.626;23.320;2022-08-19T05:52:48;10.60;;;7.60;;
39788;SDS011;25478;42.626;23.320;2022-08-19T05:55:20;11.52;;;7.15;;
39788;SDS011;25478;42.626;23.320;2022-08-19T05:57:53;8.73;;;7.13;;
39788;SDS011;25478;42.626;23.320;2022-08-19T06:00:25;8.93;;;6.95;;
39788;SDS011;25478;42.626;23.320;2022-08-19T06:02:57;8.63;;;6.93;;
39788;SDS011;25478;42.626;23.320;2022-08-19T06:05:30;10.48;;;7.07;;
39788;SDS011;25478;42.626;23.320;2022-08-19T06:08:03;8.45;;;6.78;;
39788;SDS011;25478;42.626;23.320;2022-08-19T06:10:29;11.60;;;7.32;;
39788;SDS011;25478;42.626;23.320;2022-08-19T06:13:01;10.15;;;7.05;;
39788;SDS011;25478;42.626;23.320;2022-08-19T06:15:34;10.25;;;7.47;;
39788;SDS011;25478;42.626;23.320;2022-08-19T06:18:06;12.10;;;7.00;;
39788;SDS011;25478;42.626;23.320;2022-08-19T06:20:32;9.82;;;7.05;;
39788;SDS011;25478;42.626;23.320;2022-08-19T06:23:03;12.02;;;7.82;;
39788;SDS011;25478;42.626;23.320;2022-08-19T06:25:35;11.60;;;7.32;;
39788;SDS011;25478;42.626;23.320;2022-08-19T06:28:07;11.18;;;7.38;;
39788;SDS011;25478;42.626;23.320;2022-08-19T06:30:39;15.40;;;7.05;;
39788;SDS011;25478;42.626;23.320;2022-08-19T06:33:11;14.15;;;7.50;;
39788;SDS011;25478;42.626;23.320;2022-08-19T06:35:50;12.35;;;7.47;;
39788;SDS011;25478;42.626;23.320;2022-08-19T06:38:22;17.83;;;8.50;;
39788;SDS011;25478;42.626;23.320;2022-08-19T06:41:04;13.63;;;7.93;;
39788;SDS011;25478;42.626;23.320;2022-08-19T06:43:37;19.80;;;8.07;;
39788;SDS011;25478;42.626;23.320;2022-08-19T06:46:03;16.40;;;7.60;;
39788;SDS011;25478;42.626;23.320;2022-08-19T06:48:35;14.37;;;8.10;;
39788;SDS011;25478;42.626;23.320;2022-08-19T06:51:07;11.70;;;7.20;;
39788;SDS011;25478;42.626;23.320;2022-08-19T06:53:39;16.95;;;7.50;;
39788;SDS011;25478;42.626;23.320;2022-08-19T06:56:12;11.98;;;7.20;;
39788;SDS011;25478;42.626;23.320;2022-08-19T06:58:45;11.13;;;7.05;;
39788;SDS011;25478;42.626;23.320;2022-08-19T07:01:19;13.27;;;7.50;;
39788;SDS011;25478;42.626;23.320;2022-08-19T07:03:51;10.90;;;6.90;;
39788;SDS011;25478;42.626;23.320;2022-08-19T07:06:23;12.45;;;7.47;;
39788;SDS011;25478;42.626;23.320;2022-08-19T07:08:55;13.10;;;7.00;;
39788;SDS011;25478;42.626;23.320;2022-08-19T07:11:29;10.85;;;7.03;;
39788;SDS011;25478;42.626;23.320;2022-08-19T07:14:02;11.38;;;7.10;;
39788;SDS011;25478;42.626;23.320;2022-08-19T07:16:34;15.98;;;7.15;;
39788;SDS011;25478;42.626;23.320;2022-08-19T07:19:00;18.67;;;7.88;;
39788;SDS011;25478;42.626;23.320;2022-08-19T07:21:32;12.30;;;7.13;;
39788;SDS011;25478;42.626;23.320;2022-08-19T07:24:04;11.45;;;7.75;;
39788;SDS011;25478;42.626;23.320;2022-08-19T07:26:41;12.23;;;8.05;;
39788;SDS011;25478;42.626;23.320;2022-08-19T07:29:14;12.75;;;7.22;;
39788;SDS011;25478;42.626;23.320;2022-08-19T07:31:47;12.20;;;7.70;;
39788;SDS011;25478;42.626;23.320;2022-08-19T07:34:20;12.63;;;7.30;;
39788;SDS011;25478;42.626;23.320;2022-08-19T07:36:53;11.55;;;7.72;;
39788;SDS011;25478;42.626;23.320;2022-08-19T07:39:28;9.43;;;6.95;;
39788;SDS011;25478;42.626;23.320;2022-08-19T07:42:03;11.55;;;7.53;;
39788;SDS011;25478;42.626;23.320;2022-08-19T07:44:39;9.50;;;7.35;;
39788;SDS011;25478;42.626;23.320;2022-08-19T07:47:11;11.57;;;6.95;;
39788;SDS011;25478;42.626;23.320;2022-08-19T07:49:44;14.90;;;7.60;;
39788;SDS011;25478;42.626;23.320;2022-08-19T07:52:16;11.07;;;7.13;;
39788;SDS011;25478;42.626;23.320;2022-08-19T07:54:48;10.77;;;6.90;;
39788;SDS011;25478;42.626;23.320;2022-08-19T07:57:21;11.50;;;7.55;;
39788;SDS011;25478;42.626;23.320;2022-08-19T07:59:53;10.85;;;7.07;;
39788;SDS011;25478;42.626;23.320;2022-08-19T08:02:25;12.93;;;6.43;;
39788;SDS011;25478;42.626;23.320;2022-08-19T08:04:57;8.63;;;5.97;;
39788;SDS011;25478;42.626;23.320;2022-08-19T08:07:58;14.88;;;7.43;;
39788;SDS011;25478;42.626;23.320;2022-08-19T08:10:48;11.10;;;7.50;;
39788;SDS011;25478;42.626;23.320;2022-08-19T08:13:21;9.02;;;5.70;;
39788;SDS011;25478;42.626;23.320;2022-08-19T08:15:53;10.77;;;6.40;;
39788;SDS011;25478;42.626;23.320;2022-08-19T08:18:25;8.65;;;6.40;;
39788;SDS011;25478;42.626;23.320;2022-08-19T08:20:51;12.68;;;6.78;;
39788;SDS011;25478;42.626;23.320;2022-08-19T08:23:23;9.50;;;5.70;;
39788;SDS011;25478;42.626;23.320;2022-08-19T08:25:57;8.20;;;6.13;;
39788;SDS011;25478;42.626;23.320;2022-08-19T08:28:30;11.18;;;5.90;;
39788;SDS011;25478;42.626;23.320;2022-08-19T08:31:02;7.72;;;5.82;;
39788;SDS011;25478;42.626;23.320;2022-08-19T08:33:41;12.75;;;5.88;;
39788;SDS011;25478;42.626;23.320;2022-08-19T08:36:13;9.35;;;6.20;;
39788;SDS011;25478;42.626;23.320;2022-08-19T08:38:46;8.25;;;6.35;;
39788;SDS011;25478;42.626;23.320;2022-08-19T08:43:53;11.02;;;6.57;;
39788;SDS011;25478;42.626;23.320;2022-08-19T08:55:15;9.07;;;5.55;;
39788;SDS011;25478;42.626;23.320;2022-08-19T08:58:04;8.07;;;5.00;;
39788;SDS011;25478;42.626;23.320;2022-08-19T09:00:47;8.10;;;4.82;;
39788;SDS011;25478;42.626;23.320;2022-08-19T09:03:22;10.70;;;5.13;;
39788;SDS011;25478;42.626;23.320;2022-08-19T09:06:01;7.90;;;5.53;;
39788;SDS011;25478;42.626;23.320;2022-08-19T09:08:39;6.47;;;5.70;;
39788;SDS011;25478;42.626;23.320;2022-08-19T09:17:05;7.32;;;5.10;;
39788;SDS011;25478;42.626;23.320;2022-08-19T09:19:33;7.82;;;4.70;;
39788;SDS011;25478;42.626;23.320;2022-08-19T09:22:07;8.27;;;4.85;;
39788;SDS011;25478;42.626;23.320;2022-08-19T09:24:40;7.40;;;5.18;;
39788;SDS011;25478;42.626;23.320;2022-08-19T09:27:12;10.02;;;5.35;;
39788;SDS011;25478;42.626;23.320;2022-08-19T09:29:44;8.85;;;5.28;;
39788;SDS011;25478;42.626;23.320;2022-08-19T09:32:16;7.03;;;4.88;;
39788;SDS011;25478;42.626;23.320;2022-08-19T09:34:49;7.22;;;4.65;;
39788;SDS011;25478;42.626;23.320;2022-08-19T09:37:29;7.22;;;4.40;;
39788;SDS011;25478;42.626;23.320;2022-08-19T09:40:02;6.90;;;4.85;;
39788;SDS011;25478;42.626;23.320;2022-08-19T09:42:34;6.25;;;4.30;;
39788;SDS011;25478;42.626;23.320;2022-08-19T09:45:06;5.65;;;4.30;;
39788;SDS011;25478;42.626;23.320;2022-08-19T09:47:38;5.88;;;4.30;;
39788;SDS011;25478;42.626;23.320;2022-08-19T09:50:11;7.32;;;4.38;;
39788;SDS011;25478;42.626;23.320;2022-08-19T09:52:43;5.97;;;4.57;;
39788;SDS011;25478;42.626;23.320;2022-08-19T09:55:16;8.13;;;4.75;;
39788;SDS011;25478;42.626;23.320;2022-08-19T09:57:48;6.57;;;4.13;;
39788;SDS011;25478;42.626;23.320;2022-08-19T10:00:20;7.57;;;4.32;;
39788;SDS011;25478;42.626;23.320;2022-08-19T10:02:52;7.20;;;4.88;;
39788;SDS011;25478;42.626;23.320;2022-08-19T10:05:24;9.50;;;4.10;;
39788;SDS011;25478;42.626;23.320;2022-08-19T10:08:20;8.00;;;4.28;;
39788;SDS011;25478;42.626;23.320;2022-08-19T10:10:57;5.75;;;3.92;;
39788;SDS011;25478;42.626;23.320;2022-08-19T10:13:31;7.90;;;4.80;;
39788;SDS011;25478;42.626;23.320;2022-08-19T10:18:40;6.18;;;4.75;;
39788;SDS011;25478;42.626;23.320;2022-08-19T10:21:16;5.85;;;4.50;;
39788;SDS011;25478;42.626;23.320;2022-08-19T10:23:50;8.45;;;4.63;;
39788;SDS011;25478;42.626;23.320;2022-08-19T10:26:35;7.20;;;4.85;;
39788;SDS011;25478;42.626;23.320;2022-08-19T10:29:08;7.57;;;4.80;;
39788;SDS011;25478;42.626;23.320;2022-08-19T10:34:13;9.02;;;4.93;;
39788;SDS011;25478;42.626;23.320;2022-08-19T10:36:45;8.50;;;4.70;;
39788;SDS011;25478;42.626;23.320;2022-08-19T10:39:17;10.05;;;5.00;;
39788;SDS011;25478;42.626;23.320;2022-08-19T10:41:49;6.50;;;4.60;;
39788;SDS011;25478;42.626;23.320;2022-08-19T10:44:21;8.02;;;4.93;;
39788;SDS011;25478;42.626;23.320;2022-08-19T10:46:55;6.28;;;4.80;;
39788;SDS011;25478;42.626;23.320;2022-08-19T10:49:27;6.90;;;4.47;;
39788;SDS011;25478;42.626;23.320;2022-08-19T10:51:59;5.93;;;4.88;;
39788;SDS011;25478;42.626;23.320;2022-08-19T10:54:50;9.95;;;5.15;;
39788;SDS011;25478;42.626;23.320;2022-08-19T10:57:40;6.53;;;4.80;;
39788;SDS011;25478;42.626;23.320;2022-08-19T11:00:12;5.65;;;5.03;;
39788;SDS011;25478;42.626;23.320;2022-08-19T11:02:44;7.00;;;5.43;;
39788;SDS011;25478;42.626;23.320;2022-08-19T11:07:49;9.63;;;5.40;;
39788;SDS011;25478;42.626;23.320;2022-08-19T11:12:55;8.10;;;5.40;;
39788;SDS011;25478;42.626;23.320;2022-08-19T11:15:27;8.20;;;5.60;;
39788;SDS011;25478;42.626;23.320;2022-08-19T11:20:32;8.57;;;5.30;;
39788;SDS011;25478;42.626;23.320;2022-08-19T11:23:04;7.35;;;5.18;;
39788;SDS011;25478;42.626;23.320;2022-08-19T11:25:38;7.43;;;5.03;;
39788;SDS011;25478;42.626;23.320;2022-08-19T11:28:10;8.10;;;5.20;;
39788;SDS011;25478;42.626;23.320;2022-08-19T11:30:42;7.07;;;5.00;;
39788;SDS011;25478;42.626;23.320;2022-08-19T11:33:21;8.60;;;5.20;;
39788;SDS011;25478;42.626;23.320;2022-08-19T11:35:53;7.38;;;5.30;;
39788;SDS011;25478;42.626;23.320;2022-08-19T11:38:25;5.82;;;4.55;;
39788;SDS011;25478;42.626;23.320;2022-08-19T11:43:31;8.55;;;5.07;;
39788;SDS011;25478;42.626;23.320;2022-08-19T11:46:04;7.15;;;5.03;;
39788;SDS011;25478;42.626;23.320;2022-08-19T11:48:38;5.65;;;4.78;;
39788;SDS011;25478;42.626;23.320;2022-08-19T11:53:44;9.02;;;5.07;;
39788;SDS011;25478;42.626;23.320;2022-08-19T11:58:51;6.78;;;5.30;;
39788;SDS011;25478;42.626;23.320;2022-08-19T12:01:25;6.70;;;5.15;;
39788;SDS011;25478;42.626;23.320;2022-08-19T12:03:58;10.35;;;5.72;;
39788;SDS011;25478;42.626;23.320;2022-08-19T12:09:06;7.63;;;4.97;;
39788;SDS011;25478;42.626;23.320;2022-08-19T12:11:40;8.73;;;5.32;;
39788;SDS011;25478;42.626;23.320;2022-08-19T12:14:12;7.97;;;5.20;;
39788;SDS011;25478;42.626;23.320;2022-08-19T12:19:17;8.48;;;5.57;;
39788;SDS011;25478;42.626;23.320;2022-08-19T12:24:16;7.85;;;5.45;;
39788;SDS011;25478;42.626;23.320;2022-08-19T12:26:54;7.15;;;5.65;;
39788;SDS011;25478;42.626;23.320;2022-08-19T12:29:29;9.43;;;5.32;;
39788;SDS011;25478;42.626;23.320;2022-08-19T12:34:33;6.85;;;4.95;;
39788;SDS011;25478;42.626;23.320;2022-08-19T12:37:12;6.28;;;5.40;;
39788;SDS011;25478;42.626;23.320;2022-08-19T12:42:17;7.85;;;5.50;;
39788;SDS011;25478;42.626;23.320;2022-08-19T12:44:49;8.10;;;5.33;;
39788;SDS011;25478;42.626;23.320;2022-08-19T12:47:16;9.45;;;6.03;;
39788;SDS011;25478;42.626;23.320;2022-08-19T12:52:23;8.98;;;5.40;;
39788;SDS011;25478;42.626;23.320;2022-08-19T12:54:56;7.72;;;5.50;;
39788;SDS011;25478;42.626;23.320;2022-08-19T13:00:08;8.23;;;5.47;;
39788;SDS011;25478;42.626;23.320;2022-08-19T13:02:44;7.07;;;5.22;;
39788;SDS011;25478;42.626;23.320;2022-08-19T13:05:19;5.90;;;5.28;;
39788;SDS011;25478;42.626;23.320;2022-08-19T13:07:54;13.10;;;5.82;;
39788;SDS011;25478;42.626;23.320;2022-08-19T13:10:28;6.97;;;5.45;;
39788;SDS011;25478;42.626;23.320;2022-08-19T13:13:07;6.60;;;5.82;;
39788;SDS011;25478;42.626;23.320;2022-08-19T13:15:41;6.75;;;5.38;;
39788;SDS011;25478;42.626;23.320;2022-08-19T13:18:09;10.07;;;5.50;;
39788;SDS011;25478;42.626;23.320;2022-08-19T13:20:42;7.10;;;5.45;;
39788;SDS011;25478;42.626;23.320;2022-08-19T13:23:14;7.13;;;5.23;;
39788;SDS011;25478;42.626;23.320;2022-08-19T13:25:55;6.93;;;5.67;;
39788;SDS011;25478;42.626;23.320;2022-08-19T13:28:28;8.45;;;5.40;;
39788;SDS011;25478;42.626;23.320;2022-08-19T13:31:32;9.45;;;5.55;;
39788;SDS011;25478;42.626;23.320;2022-08-19T13:34:34;9.32;;;5.10;;
39788;SDS011;25478;42.626;23.320;2022-08-19T13:37:06;7.85;;;5.45;;
39788;SDS011;25478;42.626;23.320;2022-08-19T13:39:38;8.37;;;5.77;;
39788;SDS011;25478;42.626;23.320;2022-08-19T13:42:11;7.22;;;5.03;;
39788;SDS011;25478;42.626;23.320;2022-08-19T13:44:45;11.40;;;5.22;;
39788;SDS011;25478;42.626;23.320;2022-08-19T13:47:12;7.53;;;5.22;;
39788;SDS011;25478;42.626;23.320;2022-08-19T13:52:17;6.88;;;5.25;;
39788;SDS011;25478;42.626;23.320;2022-08-19T13:54:49;8.83;;;5.57;;
39788;SDS011;25478;42.626;23.320;2022-08-19T13:57:21;8.68;;;5.53;;
39788;SDS011;25478;42.626;23.320;2022-08-19T13:59:53;7.97;;;5.35;;
39788;SDS011;25478;42.626;23.320;2022-08-19T14:02:25;5.77;;;5.17;;
39788;SDS011;25478;42.626;23.320;2022-08-19T14:04:58;8.02;;;5.32;;
39788;SDS011;25478;42.626;23.320;2022-08-19T14:07:30;8.37;;;5.37;;
39788;SDS011;25478;42.626;23.320;2022-08-19T14:12:37;8.57;;;5.70;;
39788;SDS011;25478;42.626;23.320;2022-08-19T14:17:44;8.45;;;5.57;;
39788;SDS011;25478;42.626;23.320;2022-08-19T14:20:18;8.75;;;5.45;;
39788;SDS011;25478;42.626;23.320;2022-08-19T14:22:45;7.80;;;6.10;;
39788;SDS011;25478;42.626;23.320;2022-08-19T14:25:24;8.15;;;5.35;;
39788;SDS011;25478;42.626;23.320;2022-08-19T14:27:57;8.50;;;5.22;;
39788;SDS011;25478;42.626;23.320;2022-08-19T14:30:30;8.32;;;5.47;;
39788;SDS011;25478;42.626;23.320;2022-08-19T14:33:04;8.95;;;5.85;;
39788;SDS011;25478;42.626;23.320;2022-08-19T14:35:43;8.70;;;5.80;;
39788;SDS011;25478;42.626;23.320;2022-08-19T14:40:55;8.70;;;5.82;;
39788;SDS011;25478;42.626;23.320;2022-08-19T14:46:00;8.82;;;5.63;;
39788;SDS011;25478;42.626;23.320;2022-08-19T14:51:08;6.82;;;5.35;;
39788;SDS011;25478;42.626;23.320;2022-08-19T14:56:13;8.05;;;5.50;;
39788;SDS011;25478;42.626;23.320;2022-08-19T14:58:47;8.98;;;6.07;;
39788;SDS011;25478;42.626;23.320;2022-08-19T15:01:22;9.55;;;6.03;;
39788;SDS011;25478;42.626;23.320;2022-08-19T15:03:54;8.27;;;5.93;;
39788;SDS011;25478;42.626;23.320;2022-08-19T15:06:28;9.23;;;5.75;;
39788;SDS011;25478;42.626;23.320;2022-08-19T15:08:54;9.23;;;6.00;;
39788;SDS011;25478;42.626;23.320;2022-08-19T15:11:26;8.75;;;6.15;;
39788;SDS011;25478;42.626;23.320;2022-08-19T15:16:32;8.55;;;5.95;;
39788;SDS011;25478;42.626;23.320;2022-08-19T15:19:04;7.22;;;5.57;;
39788;SDS011;25478;42.626;23.320;2022-08-19T15:21:30;9.25;;;6.20;;
39788;SDS011;25478;42.626;23.320;2022-08-19T15:24:03;7.95;;;6.15;;
39788;SDS011;25478;42.626;23.320;2022-08-19T15:26:36;9.57;;;6.22;;
39788;SDS011;25478;42.626;23.320;2022-08-19T15:29:08;7.97;;;6.00;;
39788;SDS011;25478;42.626;23.320;2022-08-19T15:31:40;9.73;;;6.10;;
39788;SDS011;25478;42.626;23.320;2022-08-19T15:34:12;9.52;;;6.43;;
39788;SDS011;25478;42.626;23.320;2022-08-19T15:36:51;7.25;;;6.07;;
39788;SDS011;25478;42.626;23.320;2022-08-19T15:41:56;10.18;;;6.25;;
39788;SDS011;25478;42.626;23.320;2022-08-19T15:44:30;8.45;;;6.13;;
39788;SDS011;25478;42.626;23.320;2022-08-19T15:47:02;8.60;;;5.90;;
39788;SDS011;25478;42.626;23.320;2022-08-19T15:49:34;10.38;;;6.15;;
39788;SDS011;25478;42.626;23.320;2022-08-19T15:52:06;12.82;;;6.28;;
39788;SDS011;25478;42.626;23.320;2022-08-19T15:54:38;10.65;;;6.57;;
39788;SDS011;25478;42.626;23.320;2022-08-19T15:59:52;9.82;;;6.40;;
39788;SDS011;25478;42.626;23.320;2022-08-19T16:02:43;9.68;;;5.88;;
39788;SDS011;25478;42.626;23.320;2022-08-19T16:05:33;11.60;;;6.70;;
39788;SDS011;25478;42.626;23.320;2022-08-19T16:08:24;9.60;;;6.07;;
39788;SDS011;25478;42.626;23.320;2022-08-19T16:10:56;10.02;;;6.53;;
39788;SDS011;25478;42.626;23.320;2022-08-19T16:13:28;9.48;;;6.50;;
39788;SDS011;25478;42.626;23.320;2022-08-19T16:16:00;9.43;;;6.20;;
39788;SDS011;25478;42.626;23.320;2022-08-19T16:18:32;9.27;;;5.93;;
39788;SDS011;25478;42.626;23.320;2022-08-19T16:21:08;8.07;;;6.07;;
39788;SDS011;25478;42.626;23.320;2022-08-19T16:23:40;10.90;;;6.00;;
39788;SDS011;25478;42.626;23.320;2022-08-19T16:26:13;7.32;;;6.03;;
39788;SDS011;25478;42.626;23.320;2022-08-19T16:28:46;8.13;;;6.07;;
39788;SDS011;25478;42.626;23.320;2022-08-19T16:31:18;13.07;;;6.63;;
39788;SDS011;25478;42.626;23.320;2022-08-19T16:33:57;8.93;;;6.80;;
39788;SDS011;25478;42.626;23.320;2022-08-19T16:36:29;10.43;;;6.80;;
39788;SDS011;25478;42.626;23.320;2022-08-19T16:39:02;11.57;;;6.30;;
39788;SDS011;25478;42.626;23.320;2022-08-19T16:41:34;8.38;;;6.55;;